Time;durP1;ratioP1;P1;durP2;ratioP2;P2;SDS_P1;SDS_P2;PMS_P1;PMS_P2;Temp;Humidity;BMP_temperature;BMP_pressure;BME280_temperature;BME280_humidity;BME280_pressure;Samples;Min_cycle;Max_cycle;Signal;HPM_P1;HPM_P2
2021/07/20 00:00:40;;;;;;;15.82;8.82;;;18.00;99.90;;;;;;5020922;28;20042;-68
2021/07/20 00:03:10;;;;;;;15.18;9.63;;;18.00;99.90;;;;;;5016024;28;20034;-68
2021/07/20 00:05:39;;;;;;;13.15;8.38;;;18.00;99.90;;;;;;5016726;28;20033;-69
2021/07/20 00:08:08;;;;;;;16.58;9.18;;;17.90;99.90;;;;;;5015659;28;20501;-69
2021/07/20 00:10:47;;;;;;;12.82;8.63;;;17.90;99.90;;;;;;5026214;28;20448;-69
2021/07/20 00:13:14;;;;;;;13.63;9.20;;;17.80;99.90;;;;;;5014068;28;20045;-69
2021/07/20 00:15:42;;;;;;;14.00;8.60;;;17.80;99.90;;;;;;5032110;28;20462;-68
2021/07/20 00:18:12;;;;;;;15.00;9.52;;;17.80;99.90;;;;;;5022495;28;20033;-68
2021/07/20 00:20:42;;;;;;;17.00;9.52;;;17.80;99.90;;;;;;5032151;28;20065;-68
2021/07/20 00:23:10;;;;;;;16.88;10.30;;;17.70;99.90;;;;;;5039430;28;20908;-69
2021/07/20 00:25:39;;;;;;;15.18;9.23;;;17.60;99.90;;;;;;5020960;28;20041;-69
2021/07/20 00:28:06;;;;;;;16.13;8.57;;;17.60;99.90;;;;;;5031158;28;20044;-69
2021/07/20 00:30:34;;;;;;;13.15;8.63;;;17.50;99.90;;;;;;5031446;28;20538;-69
2021/07/20 00:33:01;;;;;;;16.70;9.48;;;17.50;99.90;;;;;;5032275;28;20046;-69
2021/07/20 00:35:28;;;;;;;15.23;9.00;;;17.50;99.90;;;;;;5022250;28;20037;-69
2021/07/20 00:37:56;;;;;;;15.35;9.13;;;17.50;99.90;;;;;;5014161;28;20455;-68
2021/07/20 00:40:27;;;;;;;15.07;8.57;;;17.40;99.90;;;;;;5003302;28;20390;-68
2021/07/20 00:42:59;;;;;;;14.13;8.53;;;17.40;99.90;;;;;;5011600;28;20057;-68
2021/07/20 00:45:29;;;;;;;13.02;8.85;;;17.40;99.90;;;;;;5029720;28;20620;-69
2021/07/20 00:47:57;;;;;;;12.02;8.48;;;17.30;99.90;;;;;;5014070;28;20496;-69
2021/07/20 00:50:28;;;;;;;15.85;8.38;;;17.30;99.90;;;;;;5018701;28;20120;-68
2021/07/20 00:52:56;;;;;;;14.15;8.70;;;17.30;99.90;;;;;;5030181;28;20049;-69
2021/07/20 00:55:24;;;;;;;15.48;8.82;;;17.30;99.90;;;;;;5001356;28;20045;-68
2021/07/20 00:57:53;;;;;;;14.77;8.60;;;17.30;99.90;;;;;;5013136;28;20041;-69
2021/07/20 01:00:24;;;;;;;;;;;17.30;99.90;;;;;;5006364;28;20550;-69
2021/07/20 01:02:53;;;;;;;14.10;8.40;;;17.20;99.90;;;;;;5012680;28;19925;-68
2021/07/20 01:05:23;;;;;;;14.38;9.70;;;17.20;99.90;;;;;;5014381;28;20096;-68
2021/07/20 01:07:53;;;;;;;17.00;9.27;;;17.20;99.90;;;;;;5019109;28;20048;-69
2021/07/20 01:10:23;;;;;;;14.13;9.32;;;17.10;99.90;;;;;;5019222;28;20060;-68
2021/07/20 01:12:51;;;;;;;14.75;9.23;;;17.00;99.90;;;;;;5011412;28;20057;-69
2021/07/20 01:15:23;;;;;;;14.90;9.82;;;17.00;99.90;;;;;;5007682;28;20061;-69
2021/07/20 01:17:57;;;;;;;13.95;8.57;;;16.90;99.90;;;;;;5000359;28;20408;-68
2021/07/20 01:20:29;;;;;;;14.02;9.10;;;16.80;99.90;;;;;;5015528;28;20496;-69
2021/07/20 01:23:06;;;;;;;15.90;9.20;;;16.80;99.90;;;;;;5029931;28;20099;-69
2021/07/20 01:25:38;;;;;;;16.83;10.23;;;16.70;99.90;;;;;;4997555;28;20107;-68
2021/07/20 01:28:10;;;;;;;13.35;9.57;;;16.60;99.90;;;;;;5014144;28;20059;-68
2021/07/20 01:30:41;;;;;;;14.48;9.40;;;16.60;99.90;;;;;;5031119;28;20167;-68
2021/07/20 01:33:12;;;;;;;14.73;10.10;;;16.50;99.90;;;;;;5024030;28;20042;-68
2021/07/20 01:35:43;;;;;;;17.63;10.15;;;16.50;99.90;;;;;;5029676;28;20176;-69
2021/07/20 01:38:12;;;;;;;15.65;9.07;;;16.50;99.90;;;;;;5013473;28;20034;-68
2021/07/20 01:40:40;;;;;;;17.50;9.73;;;16.40;99.90;;;;;;5015295;28;20037;-68
2021/07/20 01:43:10;;;;;;;13.93;8.90;;;16.30;99.90;;;;;;5029762;28;20156;-69
2021/07/20 01:45:39;;;;;;;15.68;9.90;;;16.30;99.90;;;;;;4999293;28;20597;-69
2021/07/20 01:48:08;;;;;;;16.42;10.35;;;16.30;99.90;;;;;;5027354;28;20042;-68
2021/07/20 01:50:37;;;;;;;14.38;9.60;;;16.30;99.90;;;;;;5011373;28;20076;-68
2021/07/20 01:53:06;;;;;;;15.32;9.43;;;16.20;99.90;;;;;;5040681;28;20041;-68
2021/07/20 01:55:35;;;;;;;15.93;9.30;;;16.20;99.90;;;;;;5034769;28;20034;-68
2021/07/20 01:58:04;;;;;;;16.85;9.48;;;16.20;99.90;;;;;;5043721;28;20036;-68
2021/07/20 02:00:59;;;;;;;14.65;9.93;;;16.10;99.90;;;;;;5040330;28;20141;-68
2021/07/20 02:09:14;;;;;;;17.25;10.30;;;16.10;99.90;;;;;;5003650;28;20392;-69
2021/07/20 02:11:44;;;;;;;16.73;10.00;;;16.00;99.90;;;;;;5001411;28;20078;-68
2021/07/20 02:14:42;;;;;;;17.38;10.25;;;16.00;99.90;;;;;;5038033;28;20037;-68
2021/07/20 02:17:51;;;;;;;14.77;8.98;;;16.00;99.90;;;;;;5002637;28;20045;-68
2021/07/20 02:20:24;;;;;;;13.90;8.77;;;16.00;99.90;;;;;;5002519;28;20045;-69
2021/07/20 02:23:15;;;;;;;12.63;8.50;;;16.00;99.90;;;;;;5024581;28;20138;-69
2021/07/20 02:25:42;;;;;;;16.42;9.23;;;15.90;99.90;;;;;;5014042;28;20041;-68
2021/07/20 02:28:25;;;;;;;14.15;9.07;;;15.90;99.90;;;;;;5011093;28;20088;-68
2021/07/20 02:30:53;;;;;;;16.77;9.68;;;15.90;99.90;;;;;;5013257;28;20065;-68
2021/07/20 02:33:22;;;;;;;15.68;9.70;;;15.80;99.90;;;;;;5015177;28;20171;-68
2021/07/20 02:35:51;;;;;;;12.88;8.65;;;15.80;99.90;;;;;;5013154;28;20174;-69
2021/07/20 02:38:30;;;;;;;16.65;9.75;;;15.80;99.90;;;;;;5030187;28;20124;-69
2021/07/20 02:40:59;;;;;;;16.52;9.60;;;15.70;99.90;;;;;;4986435;28;20045;-68
2021/07/20 02:43:27;;;;;;;20.52;9.52;;;15.70;99.90;;;;;;5021141;28;20191;-68
2021/07/20 02:45:56;;;;;;;14.32;9.00;;;15.70;99.90;;;;;;5048312;28;20451;-68
2021/07/20 02:48:24;;;;;;;14.57;8.85;;;15.70;99.90;;;;;;5007152;28;20500;-68
2021/07/20 02:50:52;;;;;;;13.20;8.52;;;15.60;99.90;;;;;;5037885;28;20476;-68
2021/07/20 02:53:38;;;;;;;17.38;8.63;;;15.60;99.90;;;;;;5047200;28;20045;-68
2021/07/20 02:56:10;;;;;;;12.82;8.55;;;15.60;99.90;;;;;;5028147;28;20056;-69
2021/07/20 02:58:45;;;;;;;17.83;8.80;;;15.50;99.90;;;;;;5019081;28;20468;-69
2021/07/20 03:01:23;;;;;;;15.40;9.10;;;15.50;99.90;;;;;;5015004;28;20132;-69
2021/07/20 03:03:53;;;;;;;13.93;8.70;;;15.50;99.90;;;;;;5003044;28;20041;-69
2021/07/20 03:06:28;;;;;;;15.02;8.35;;;15.60;99.90;;;;;;5050861;28;20044;-68
2021/07/20 03:08:59;;;;;;;10.80;7.75;;;15.60;99.90;;;;;;4999266;28;20041;-68
2021/07/20 03:11:39;;;;;;;14.18;7.78;;;15.60;99.90;;;;;;5031392;28;20088;-69
2021/07/20 03:14:22;;;;;;;16.25;8.65;;;15.60;99.90;;;;;;5063780;28;20382;-68
2021/07/20 03:17:06;;;;;;;14.32;7.93;;;15.60;99.90;;;;;;5036729;28;20041;-68
2021/07/20 03:19:38;;;;;;;16.83;8.65;;;15.60;99.90;;;;;;5040898;28;20082;-68
2021/07/20 03:22:12;;;;;;;12.35;7.55;;;15.60;99.90;;;;;;5098660;28;20045;-68
2021/07/20 03:24:47;;;;;;;11.20;7.60;;;15.60;99.90;;;;;;5030408;28;20041;-68
2021/07/20 03:27:17;;;;;;;12.82;7.80;;;15.60;99.90;;;;;;5047288;28;20045;-68
2021/07/20 03:29:51;;;;;;;11.60;7.55;;;15.60;99.90;;;;;;5023046;28;20435;-68
2021/07/20 03:32:21;;;;;;;10.25;7.30;;;15.60;99.90;;;;;;5060472;28;20040;-68
2021/07/20 03:34:54;;;;;;;12.73;7.90;;;15.50;99.90;;;;;;5039601;28;20106;-68
2021/07/20 03:37:23;;;;;;;11.63;6.95;;;15.60;99.90;;;;;;5028723;28;20165;-69
2021/07/20 03:39:53;;;;;;;10.82;7.25;;;15.60;99.90;;;;;;5051802;28;20476;-69
2021/07/20 03:42:24;;;;;;;13.77;7.55;;;15.60;99.90;;;;;;5049010;28;20088;-69
2021/07/20 03:44:53;;;;;;;13.27;7.88;;;15.60;99.90;;;;;;5035173;28;20040;-70
2021/07/20 03:47:23;;;;;;;15.30;8.63;;;15.60;99.90;;;;;;5064142;28;20044;-69
2021/07/20 03:49:54;;;;;;;14.55;7.95;;;15.70;99.90;;;;;;5049878;28;20128;-69
2021/07/20 03:52:26;;;;;;;13.90;7.25;;;15.70;99.90;;;;;;5042713;28;20052;-69
2021/07/20 03:54:53;;;;;;;11.90;7.65;;;15.70;99.90;;;;;;5038016;28;20045;-69
2021/07/20 03:57:23;;;;;;;13.05;7.38;;;15.80;99.90;;;;;;5049759;28;20414;-69
2021/07/20 03:59:54;;;;;;;11.15;7.82;;;15.80;99.90;;;;;;5055053;28;20128;-69
2021/07/20 04:02:28;;;;;;;12.10;7.88;;;15.90;99.90;;;;;;5044445;28;20048;-70
2021/07/20 04:05:04;;;;;;;10.88;7.78;;;16.00;99.90;;;;;;5049810;28;20061;-69
2021/07/20 04:07:34;;;;;;;12.55;7.60;;;16.10;99.90;;;;;;5053677;28;20044;-69
2021/07/20 04:10:15;;;;;;;13.25;7.93;;;16.10;99.90;;;;;;5033196;28;20132;-69
2021/07/20 04:12:43;;;;;;;15.48;7.65;;;16.20;99.90;;;;;;5040950;28;20120;-70
2021/07/20 04:15:49;;;;;;;14.15;7.65;;;16.30;99.90;;;;;;5079383;28;20049;-69
2021/07/20 04:18:20;;;;;;;11.30;6.65;;;16.40;99.90;;;;;;5065912;28;20159;-70
2021/07/20 04:20:48;;;;;;;15.93;7.38;;;16.50;99.90;;;;;;5052287;28;20562;-69
2021/07/20 04:23:23;;;;;;;11.63;7.18;;;16.60;99.90;;;;;;5068880;28;20040;-70
2021/07/20 04:26:04;;;;;;;11.45;7.05;;;16.70;99.90;;;;;;5043542;28;20151;-68
2021/07/20 04:28:35;;;;;;;13.57;6.93;;;16.80;99.90;;;;;;5039444;28;20044;-68
2021/07/20 04:31:07;;;;;;;10.18;6.35;;;16.90;99.90;;;;;;5030331;28;20075;-68
2021/07/20 04:33:36;;;;;;;15.45;6.80;;;17.00;99.90;;;;;;4998877;28;20514;-68
2021/07/20 04:36:23;;;;;;;9.93;6.00;;;17.00;99.90;;;;;;5052131;28;20480;-70
2021/07/20 04:38:59;;;;;;;11.70;6.97;;;17.10;99.90;;;;;;5038165;28;20448;-68
2021/07/20 04:41:26;;;;;;;10.40;6.47;;;17.10;99.90;;;;;;5036891;28;20078;-68
2021/07/20 04:43:54;;;;;;;13.13;7.40;;;17.10;99.90;;;;;;5055751;28;20098;-70
2021/07/20 04:46:40;;;;;;;12.20;7.28;;;17.30;99.90;;;;;;5031587;28;20042;-70
2021/07/20 04:49:13;;;;;;;10.93;6.60;;;17.50;99.90;;;;;;5026908;28;20172;-70
2021/07/20 04:51:43;;;;;;;10.43;6.32;;;17.50;99.90;;;;;;5038784;28;20140;-71
2021/07/20 04:54:15;;;;;;;9.15;6.43;;;17.60;99.90;;;;;;5017238;28;20065;-69
2021/07/20 04:56:49;;;;;;;10.18;6.55;;;17.80;99.90;;;;;;5026802;28;20042;-70
2021/07/20 04:59:16;;;;;;;10.68;6.78;;;17.90;99.90;;;;;;5038213;28;20170;-70
2021/07/20 05:01:46;;;;;;;14.57;7.28;;;17.90;99.90;;;;;;5035986;28;20061;-70
2021/07/20 05:04:16;;;;;;;11.77;7.03;;;18.00;99.90;;;;;;5032411;28;20424;-70
2021/07/20 05:06:47;;;;;;;11.40;7.20;;;18.10;99.90;;;;;;5037024;28;20050;-70
2021/07/20 05:09:18;;;;;;;11.70;7.07;;;18.10;99.90;;;;;;5035941;28;20479;-70
2021/07/20 05:11:46;;;;;;;13.25;7.32;;;18.20;99.90;;;;;;5015939;28;20119;-70
2021/07/20 05:14:17;;;;;;;14.45;7.50;;;18.20;99.90;;;;;;5021903;28;20072;-71
2021/07/20 05:16:48;;;;;;;13.18;7.07;;;18.20;99.90;;;;;;5007225;28;20038;-70
2021/07/20 05:19:17;;;;;;;13.85;7.30;;;18.20;99.90;;;;;;5021105;28;20056;-70
2021/07/20 05:21:51;;;;;;;12.20;6.55;;;18.20;99.90;;;;;;5012352;28;20034;-70
2021/07/20 05:24:24;;;;;;;11.70;6.70;;;18.20;99.90;;;;;;5023560;28;20048;-69
2021/07/20 05:27:00;;;;;;;13.02;6.90;;;18.10;99.90;;;;;;5008321;28;20042;-69
2021/07/20 05:29:30;;;;;;;9.73;6.43;;;18.10;99.90;;;;;;5008219;28;20055;-69
2021/07/20 05:32:02;;;;;;;9.27;6.18;;;18.10;99.90;;;;;;5010848;28;20069;-70
2021/07/20 05:34:31;;;;;;;13.02;7.47;;;18.10;99.90;;;;;;5039073;28;20483;-70
2021/07/20 05:36:59;;;;;;;10.10;6.72;;;18.10;99.90;;;;;;5035463;28;20451;-69
2021/07/20 05:39:36;;;;;;;12.13;8.32;;;18.10;99.90;;;;;;5022236;28;20045;-69
2021/07/20 05:42:18;;;;;;;14.13;7.47;;;18.10;99.90;;;;;;5026979;28;20034;-69
2021/07/20 05:44:47;;;;;;;13.75;8.43;;;18.20;99.90;;;;;;5021197;28;20033;-69
2021/07/20 05:47:15;;;;;;;13.60;8.35;;;18.30;99.90;;;;;;5021888;28;20100;-70
2021/07/20 05:50:05;;;;;;;15.60;9.70;;;18.30;99.90;;;;;;5003017;28;20077;-69
2021/07/20 05:52:56;;;;;;;13.95;7.82;;;18.30;99.90;;;;;;5027525;28;20088;-69
2021/07/20 05:55:30;;;;;;;16.38;8.48;;;18.40;99.90;;;;;;5025090;28;20116;-70
2021/07/20 05:58:00;;;;;;;16.52;7.93;;;18.40;99.90;;;;;;5032458;28;20055;-69
2021/07/20 06:00:29;;;;;;;12.23;7.95;;;18.40;99.90;;;;;;5030729;28;20037;-69
2021/07/20 06:03:02;;;;;;;14.15;9.07;;;18.40;99.90;;;;;;5024797;28;20562;-69
2021/07/20 06:05:30;;;;;;;13.38;8.88;;;18.50;99.90;;;;;;5033416;28;20037;-69
2021/07/20 06:07:58;;;;;;;11.50;8.15;;;18.70;99.90;;;;;;5032226;28;20178;-69
2021/07/20 06:10:27;;;;;;;11.88;6.38;;;18.80;99.90;;;;;;5030392;28;20072;-69
2021/07/20 06:12:58;;;;;;;12.77;6.78;;;18.90;99.90;;;;;;5030123;28;20095;-68
2021/07/20 06:15:27;;;;;;;12.00;6.55;;;19.00;99.90;;;;;;5033026;28;20045;-68
2021/07/20 06:17:58;;;;;;;13.00;6.00;;;19.20;99.90;;;;;;5031888;28;20037;-69
2021/07/20 06:20:25;;;;;;;12.45;7.10;;;19.30;99.90;;;;;;5022907;28;20042;-69
2021/07/20 06:22:55;;;;;;;14.27;6.70;;;19.50;99.90;;;;;;5036936;28;20508;-68
2021/07/20 06:25:26;;;;;;;9.77;6.00;;;19.70;99.90;;;;;;5029906;28;20547;-68
2021/07/20 06:27:56;;;;;;;11.32;6.00;;;19.90;99.90;;;;;;5031054;28;20051;-68
2021/07/20 06:30:23;;;;;;;12.27;8.15;;;20.20;99.90;;;;;;5028243;28;20054;-68
2021/07/20 06:32:52;;;;;;;16.05;9.27;;;20.40;99.90;;;;;;5025382;28;20036;-68
2021/07/20 06:35:20;;;;;;;12.10;6.90;;;20.70;99.90;;;;;;5012569;28;20056;-70
2021/07/20 06:37:49;;;;;;;15.43;6.78;;;20.70;99.90;;;;;;5033024;28;20120;-68
2021/07/20 06:40:18;;;;;;;10.57;6.28;;;20.90;99.90;;;;;;5027774;28;20128;-68
2021/07/20 06:42:48;;;;;;;11.23;6.25;;;21.00;99.90;;;;;;5022479;28;20045;-67
2021/07/20 06:45:16;;;;;;;12.02;6.63;;;21.20;99.90;;;;;;5020592;28;20052;-68
2021/07/20 06:47:48;;;;;;;11.43;5.40;;;21.20;99.90;;;;;;5024939;28;20136;-67
2021/07/20 06:50:18;;;;;;;11.85;5.72;;;21.20;99.90;;;;;;5009666;28;20403;-67
2021/07/20 06:52:48;;;;;;;13.57;7.20;;;21.40;99.90;;;;;;5023195;28;20045;-68
2021/07/20 06:55:17;;;;;;;11.88;5.68;;;21.50;99.90;;;;;;5020524;28;20034;-68
2021/07/20 06:57:46;;;;;;;13.32;6.93;;;21.60;99.90;;;;;;5030883;28;20042;-68
2021/07/20 07:00:17;;;;;;;11.15;5.78;;;21.70;99.90;;;;;;5029780;28;20559;-68
2021/07/20 07:02:53;;;;;;;13.17;6.07;;;21.60;99.90;;;;;;5037516;28;20077;-68
2021/07/20 07:05:24;;;;;;;12.05;5.95;;;21.60;99.90;;;;;;5014138;28;20125;-68
2021/07/20 07:07:53;;;;;;;10.40;6.40;;;21.60;99.90;;;;;;5019828;28;20042;-68
2021/07/20 07:10:21;;;;;;;11.32;6.00;;;21.70;99.90;;;;;;5033537;28;20058;-68
2021/07/20 07:12:51;;;;;;;10.93;6.65;;;21.80;99.90;;;;;;5020153;28;20100;-68
2021/07/20 07:15:19;;;;;;;10.88;6.20;;;21.80;99.90;;;;;;5022230;28;20156;-68
2021/07/20 07:17:49;;;;;;;10.90;7.75;;;21.80;99.90;;;;;;5030959;28;20068;-69
2021/07/20 07:20:20;;;;;;;16.67;9.00;;;21.70;99.90;;;;;;5012123;28;20041;-69
2021/07/20 07:22:48;;;;;;;12.55;7.65;;;21.70;99.90;;;;;;5014934;28;20091;-69
2021/07/20 07:25:18;;;;;;;9.63;6.07;;;21.70;99.90;;;;;;4994125;28;20046;-69
2021/07/20 07:27:46;;;;;;;13.85;5.68;;;21.70;99.90;;;;;;5028536;28;20064;-69
2021/07/20 07:30:17;;;;;;;9.13;5.72;;;21.70;99.90;;;;;;5030900;28;20476;-69
2021/07/20 07:32:44;;;;;;;10.07;5.10;;;21.60;99.90;;;;;;5019368;28;20120;-69
2021/07/20 07:35:12;;;;;;;11.45;5.40;;;21.50;99.90;;;;;;5035272;28;20073;-68
2021/07/20 07:37:40;;;;;;;11.10;5.38;;;21.60;99.90;;;;;;5020195;28;20041;-69
2021/07/20 07:40:11;;;;;;;12.77;6.63;;;21.70;99.90;;;;;;5015893;28;20408;-69
2021/07/20 07:42:39;;;;;;;12.98;7.65;;;21.70;99.90;;;;;;5029811;28;20048;-69
2021/07/20 07:45:08;;;;;;;11.55;6.80;;;21.80;99.90;;;;;;5043322;28;20098;-68
2021/07/20 07:47:38;;;;;;;11.98;6.05;;;21.80;99.90;;;;;;5010561;28;20145;-68
2021/07/20 07:50:07;;;;;;;10.40;6.03;;;21.90;99.90;;;;;;5029472;28;20441;-69
2021/07/20 07:52:37;;;;;;;10.13;5.13;;;22.00;99.90;;;;;;5031623;28;20034;-69
2021/07/20 07:55:05;;;;;;;10.43;5.47;;;22.10;99.90;;;;;;5025111;28;20085;-69
2021/07/20 07:57:36;;;;;;;9.55;5.28;;;22.30;99.90;;;;;;5038408;28;20061;-69
2021/07/20 08:00:06;;;;;;;8.10;5.55;;;22.20;99.90;;;;;;5031953;28;20033;-69
2021/07/20 08:02:39;;;;;;;10.68;6.80;;;22.20;99.90;;;;;;5033841;28;20056;-69
2021/07/20 08:05:08;;;;;;;10.05;6.07;;;22.10;99.90;;;;;;5028199;28;20041;-69
2021/07/20 08:07:37;;;;;;;10.40;5.57;;;22.20;99.90;;;;;;5032399;28;20103;-69
2021/07/20 08:10:07;;;;;;;10.23;6.07;;;22.10;99.90;;;;;;5031312;28;20049;-69
2021/07/20 08:12:38;;;;;;;9.70;5.40;;;22.00;99.90;;;;;;5035435;28;20033;-69
2021/07/20 08:15:07;;;;;;;10.15;5.13;;;22.10;99.90;;;;;;5042318;28;20116;-69
2021/07/20 08:17:35;;;;;;;12.35;5.68;;;22.20;99.90;;;;;;5025115;28;20063;-69
2021/07/20 08:20:04;;;;;;;12.43;5.07;;;22.20;99.90;;;;;;5023033;28;20393;-69
2021/07/20 08:22:32;;;;;;;8.93;4.97;;;22.30;99.90;;;;;;5031092;28;20049;-68
2021/07/20 08:25:08;;;;;;;12.23;6.28;;;22.40;99.90;;;;;;5035439;28;20096;-68
2021/07/20 08:27:52;;;;;;;9.68;5.97;;;22.40;99.90;;;;;;5039609;28;20440;-68
2021/07/20 08:30:21;;;;;;;10.15;5.22;;;22.40;99.90;;;;;;5008283;28;20101;-68
2021/07/20 08:32:56;;;;;;;9.82;5.38;;;22.40;99.90;;;;;;5037246;28;20055;-69
2021/07/20 08:35:30;;;;;;;9.70;4.97;;;22.40;99.90;;;;;;5039473;28;20449;-69
2021/07/20 08:38:04;;;;;;;11.13;5.57;;;22.50;99.90;;;;;;5017062;28;20054;-68
2021/07/20 08:40:49;;;;;;;;;;;22.60;99.90;;;;;;5019845;28;20085;-69
2021/07/20 08:43:32;;;;;;;9.77;5.40;;;22.70;99.90;;;;;;5043183;28;19943;-68
2021/07/20 08:46:24;;;;;;;9.75;4.70;;;22.80;99.90;;;;;;5038217;28;20045;-68
2021/07/20 08:49:03;;;;;;;;;;;22.90;99.90;;;;;;5024379;28;20551;-68
2021/07/20 08:52:08;;;;;;;10.50;5.25;;;22.80;99.90;;;;;;5045424;28;20408;-68
2021/07/20 08:54:53;;;;;;;12.05;5.53;;;22.60;99.90;;;;;;5040348;28;20098;-68
2021/07/20 08:57:43;;;;;;;12.13;5.90;;;22.60;99.90;;;;;;5048721;28;20120;-68
2021/07/20 09:00:12;;;;;;;11.77;5.25;;;22.80;99.90;;;;;;5035239;28;20060;-68
2021/07/20 09:03:10;;;;;;;9.60;5.10;;;23.00;99.90;;;;;;5013565;28;20049;-68
2021/07/20 09:05:50;;;;;;;12.05;5.78;;;23.10;99.90;;;;;;5020259;28;20045;-68
2021/07/20 09:08:36;;;;;;;11.20;5.93;;;23.60;99.90;;;;;;5015337;28;20389;-67
2021/07/20 09:11:14;;;;;;;11.20;5.65;;;24.00;99.90;;;;;;5027906;28;20081;-67
2021/07/20 09:13:50;;;;;;;8.88;5.57;;;24.50;99.90;;;;;;5009835;28;20072;-68
2021/07/20 09:16:39;;;;;;;13.40;5.47;;;24.50;99.90;;;;;;5019058;28;20083;-67
2021/07/20 09:19:20;;;;;;;8.30;4.85;;;24.20;99.90;;;;;;5033301;28;20361;-68
2021/07/20 09:21:51;;;;;;;9.82;5.47;;;24.00;99.90;;;;;;5025189;28;20128;-69
2021/07/20 09:24:46;;;;;;;9.82;5.50;;;23.90;99.90;;;;;;5011447;28;20334;-67
2021/07/20 09:27:40;;;;;;;9.50;5.68;;;23.80;99.90;;;;;;5028659;28;20049;-67
2021/07/20 09:30:21;;;;;;;10.50;6.00;;;23.70;99.90;;;;;;5022026;28;20046;-67
2021/07/20 09:33:05;;;;;;;11.63;6.22;;;23.70;99.90;;;;;;5045093;28;20071;-68
2021/07/20 09:35:35;;;;;;;9.00;6.05;;;23.70;99.90;;;;;;5036805;28;20140;-68
2021/07/20 09:38:15;;;;;;;10.52;5.97;;;23.70;99.90;;;;;;5017413;28;20118;-68
2021/07/20 09:40:45;;;;;;;10.23;5.95;;;24.00;99.90;;;;;;5023790;28;20472;-68
2021/07/20 09:43:41;;;;;;;9.85;5.38;;;24.50;99.90;;;;;;5045286;28;20414;-68
2021/07/20 09:46:17;;;;;;;9.82;5.18;;;24.80;99.90;;;;;;5047950;28;20053;-67
2021/07/20 09:48:50;;;;;;;10.23;5.43;;;25.10;99.90;;;;;;5025110;28;20038;-67
2021/07/20 09:51:23;;;;;;;14.63;6.32;;;24.90;99.90;;;;;;5018821;28;20045;-67
2021/07/20 09:54:27;;;;;;;10.68;5.35;;;24.60;99.90;;;;;;5027437;28;20072;-67
2021/07/20 09:57:19;;;;;;;10.52;6.65;;;24.40;99.90;;;;;;5026885;28;20072;-68
2021/07/20 09:59:55;;;;;;;11.02;6.13;;;24.10;99.90;;;;;;5029643;28;20068;-68
2021/07/20 10:02:42;;;;;;;10.43;6.80;;;24.00;99.90;;;;;;5035767;28;20061;-69
2021/07/20 10:05:15;;;;;;;11.77;6.35;;;24.30;99.90;;;;;;5029335;28;20052;-68
2021/07/20 10:07:53;;;;;;;10.05;6.18;;;24.60;99.90;;;;;;5038362;28;20128;-68
2021/07/20 10:10:42;;;;;;;9.90;6.28;;;24.80;99.90;;;;;;5015578;28;20041;-68
2021/07/20 10:13:36;;;;;;;10.52;5.97;;;24.90;99.90;;;;;;5040097;28;20111;-68
2021/07/20 10:16:23;;;;;;;14.98;6.50;;;24.60;99.90;;;;;;5032635;28;20061;-68
2021/07/20 10:19:06;;;;;;;11.63;6.63;;;24.60;99.90;;;;;;5033410;28;20068;-68
2021/07/20 10:21:40;;;;;;;11.48;6.68;;;24.40;99.90;;;;;;5030144;28;20045;-68
2021/07/20 10:24:14;;;;;;;12.00;6.40;;;24.40;99.90;;;;;;5025298;28;20514;-68
2021/07/20 10:27:04;;;;;;;13.68;7.68;;;24.80;99.90;;;;;;5037065;28;20038;-68
2021/07/20 10:30:03;;;;;;;12.73;7.25;;;24.50;99.90;;;;;;5039889;28;20094;-68
2021/07/20 10:33:13;;;;;;;11.27;7.00;;;24.50;99.90;;;;;;5035475;28;20070;-69
2021/07/20 10:35:48;;;;;;;11.07;7.10;;;24.90;99.90;;;;;;5031469;28;20099;-69
2021/07/20 10:38:20;;;;;;;13.73;7.63;;;25.40;99.90;;;;;;5029955;28;20128;-69
2021/07/20 10:40:48;;;;;;;;;;;25.90;99.90;;;;;;5028993;28;20045;-68
2021/07/20 10:43:24;;;;;;;12.93;7.57;;;26.30;99.90;;;;;;5026249;28;19932;-68
2021/07/20 10:45:53;;;;;;;11.20;7.38;;;26.60;99.90;;;;;;5002403;28;20144;-68
2021/07/20 10:48:24;;;;;;;13.38;7.07;;;27.00;99.90;;;;;;5008882;28;20049;-69
2021/07/20 10:50:56;;;;;;;16.30;7.22;;;27.00;99.90;;;;;;5013243;28;20085;-68
2021/07/20 10:53:33;;;;;;;10.85;6.57;;;26.30;99.90;;;;;;5021651;28;20111;-68
2021/07/20 10:56:25;;;;;;;12.55;6.88;;;25.90;99.90;;;;;;5039700;28;20100;-68
2021/07/20 10:59:17;;;;;;;13.68;6.50;;;25.40;99.90;;;;;;5016310;28;20073;-68
2021/07/20 11:02:03;;;;;;;10.82;6.45;;;25.60;99.90;;;;;;5023051;28;20042;-68
2021/07/20 11:04:52;;;;;;;11.57;6.28;;;25.70;99.90;;;;;;5031388;28;20048;-69
2021/07/20 11:07:29;;;;;;;14.70;7.32;;;26.30;99.90;;;;;;5036875;28;20123;-69
2021/07/20 11:10:31;;;;;;;11.98;6.47;;;27.00;99.90;;;;;;5021068;28;20091;-68
2021/07/20 11:13:01;;;;;;;11.80;6.75;;;27.60;99.90;;;;;;5016390;28;20433;-68
2021/07/20 11:15:31;;;;;;;9.27;6.45;;;26.80;99.90;;;;;;5025146;28;20377;-69
2021/07/20 11:18:03;;;;;;;12.13;6.63;;;26.30;99.90;;;;;;5014467;28;20400;-69
2021/07/20 11:20:31;;;;;;;13.60;6.85;;;26.00;99.90;;;;;;5022033;28;20124;-69
2021/07/20 11:23:00;;;;;;;11.85;6.72;;;25.70;99.90;;;;;;5016259;28;20611;-69
2021/07/20 11:25:28;;;;;;;11.45;6.35;;;25.40;99.90;;;;;;5033307;28;20072;-69
2021/07/20 11:27:58;;;;;;;14.93;7.90;;;25.40;99.90;;;;;;5036035;28;20045;-69
2021/07/20 11:30:32;;;;;;;10.45;6.32;;;26.00;99.90;;;;;;5017963;28;20491;-69
2021/07/20 11:33:11;;;;;;;9.68;6.00;;;26.80;99.90;;;;;;5038898;28;20445;-70
2021/07/20 11:35:40;;;;;;;11.02;6.15;;;27.30;99.90;;;;;;5030062;28;20052;-69
2021/07/20 11:38:14;;;;;;;11.48;6.38;;;27.90;99.90;;;;;;5041415;28;20499;-69
2021/07/20 11:40:50;;;;;;;11.10;6.07;;;28.60;99.50;;;;;;5031684;28;20044;-69
2021/07/20 11:43:25;;;;;;;13.02;5.93;;;29.20;98.60;;;;;;5031630;28;20409;-69
2021/07/20 11:45:58;;;;;;;14.50;6.80;;;29.20;96.70;;;;;;5019623;28;20045;-69
2021/07/20 11:48:35;;;;;;;9.05;5.47;;;28.80;95.70;;;;;;5031008;28;20128;-69
2021/07/20 11:51:13;;;;;;;13.07;7.45;;;28.70;95.60;;;;;;5034206;28;20041;-69
2021/07/20 11:54:07;;;;;;;12.15;6.50;;;28.70;94.90;;;;;;5032615;28;20519;-69
2021/07/20 11:56:43;;;;;;;12.57;6.20;;;29.10;93.80;;;;;;5044740;28;20037;-69
2021/07/20 11:59:49;;;;;;;11.50;6.13;;;29.20;93.80;;;;;;5025627;28;20132;-70
2021/07/20 12:03:13;;;;;;;11.52;6.40;;;28.60;94.00;;;;;;5048155;28;20737;-69
2021/07/20 12:06:24;;;;;;;8.43;5.85;;;27.80;95.10;;;;;;5034526;28;20059;-69
2021/07/20 12:09:22;;;;;;;9.40;5.55;;;27.80;95.30;;;;;;5033788;28;20500;-69
2021/07/20 12:11:55;;;;;;;9.75;5.80;;;28.50;93.80;;;;;;5008434;28;20045;-69
2021/07/20 12:14:23;;;;;;;12.98;5.85;;;28.90;92.80;;;;;;5038989;28;20092;-69
2021/07/20 12:16:54;;;;;;;9.25;6.10;;;29.20;92.90;;;;;;5035373;28;20128;-70
2021/07/20 12:19:35;;;;;;;10.82;6.15;;;29.90;92.60;;;;;;5029775;28;20136;-69
2021/07/20 12:22:09;;;;;;;8.27;5.88;;;29.80;92.60;;;;;;5027225;28;20096;-69
2021/07/20 12:24:37;;;;;;;9.63;5.28;;;29.90;92.50;;;;;;5036691;28;20348;-68
2021/07/20 12:27:07;;;;;;;9.70;5.93;;;30.20;92.20;;;;;;5042962;28;20123;-68
2021/07/20 12:29:42;;;;;;;11.00;5.97;;;30.20;91.40;;;;;;5047853;28;20051;-72
2021/07/20 12:32:14;;;;;;;10.23;5.80;;;30.20;91.10;;;;;;5030170;28;20049;-69
2021/07/20 12:34:49;;;;;;;10.88;5.75;;;30.40;90.20;;;;;;5031401;28;20056;-70
2021/07/20 12:37:18;;;;;;;10.98;6.07;;;30.30;89.80;;;;;;5028484;28;20100;-71
2021/07/20 12:39:47;;;;;;;9.40;5.68;;;30.20;89.10;;;;;;5042561;28;20123;-69
2021/07/20 12:42:16;;;;;;;12.55;6.22;;;30.70;89.60;;;;;;5020140;28;20141;-70
2021/07/20 12:44:44;;;;;;;8.85;5.88;;;31.00;86.60;;;;;;5024135;28;20068;-70
2021/07/20 12:47:12;;;;;;;11.73;5.13;;;31.10;86.10;;;;;;5039155;28;20049;-70
2021/07/20 12:49:44;;;;;;;12.73;5.80;;;31.50;84.90;;;;;;5029352;28;20095;-70
2021/07/20 12:52:14;;;;;;;7.82;5.15;;;32.10;84.50;;;;;;5035780;28;20049;-69
2021/07/20 12:54:43;;;;;;;;;;;33.00;83.40;;;;;;5014197;28;20068;-67
2021/07/20 12:57:13;;;;;;;11.90;6.40;;;32.60;81.90;;;;;;5026076;28;19921;-69
2021/07/20 13:00:01;;;;;;;8.30;5.63;;;31.60;82.20;;;;;;5034852;28;20095;-69
2021/07/20 13:02:31;;;;;;;7.70;5.63;;;30.50;83.90;;;;;;5044222;28;20068;-70
2021/07/20 13:04:59;;;;;;;9.23;6.30;;;30.20;85.00;;;;;;5039734;28;20052;-68
2021/07/20 13:07:32;;;;;;;9.60;5.80;;;30.10;84.70;;;;;;5048122;28;20041;-70
2021/07/20 13:10:04;;;;;;;8.68;5.40;;;30.20;84.40;;;;;;5039058;28;20049;-70
2021/07/20 13:12:32;;;;;;;10.20;5.72;;;30.30;84.80;;;;;;5017630;28;20041;-70
2021/07/20 13:15:19;;;;;;;8.75;5.22;;;30.90;84.90;;;;;;5024772;28;20076;-70
2021/07/20 13:17:51;;;;;;;10.02;6.10;;;31.70;82.50;;;;;;5016900;28;20045;-68
2021/07/20 13:20:28;;;;;;;11.13;5.93;;;31.70;82.50;;;;;;5032222;28;20107;-69
2021/07/20 13:22:58;;;;;;;9.90;5.72;;;32.30;80.90;;;;;;5033071;28;20545;-68